Time;durP1;ratioP1;P1;durP2;ratioP2;P2;SDS_P1;SDS_P2;PMS_P1;PMS_P2;Temp;Humidity;BMP_temperature;BMP_pressure;BME280_temperature;BME280_humidity;BME280_pressure;Samples;Min_cycle;Max_cycle;Signal;HPM_P1;HPM_P2
2022/10/18 00:02:13;;;;;;;189.57;36.25;;;12.90;99.90;;;;;;5053006;28;20500;-58
2022/10/18 00:04:40;;;;;;;174.63;41.47;;;13.10;99.90;;;;;;5052960;28;20086;-58
2022/10/18 00:07:09;;;;;;;127.63;37.15;;;12.80;99.90;;;;;;5053155;28;20040;-58
2022/10/18 00:09:35;;;;;;;433.63;56.45;;;13.40;99.90;;;;;;5053210;28;20053;-58
2022/10/18 00:12:00;;;;;;;476.15;60.05;;;13.20;99.90;;;;;;5052894;28;20047;-58
2022/10/18 00:14:26;;;;;;;737.42;72.63;;;13.00;99.90;;;;;;5052981;28;20127;-58
2022/10/18 00:16:53;;;;;;;424.65;52.72;;;;;;;;;;5052879;28;20515;-63
2022/10/18 00:19:19;;;;;;;291.38;47.55;;;12.40;99.90;;;;;;5052667;28;20132;-63
2022/10/18 00:21:45;;;;;;;155.63;41.05;;;12.90;99.90;;;;;;5053018;28;20116;-63
2022/10/18 00:24:11;;;;;;;394.75;52.40;;;12.90;99.90;;;;;;5052955;28;20389;-62
2022/10/18 00:26:36;;;;;;;567.63;59.63;;;12.90;99.90;;;;;;5052850;28;20041;-63
2022/10/18 00:29:04;;;;;;;93.25;38.15;;;12.70;99.90;;;;;;5051286;28;20057;-63
2022/10/18 00:31:33;;;;;;;626.85;70.82;;;12.80;99.90;;;;;;5051449;28;20048;-58
2022/10/18 00:34:01;;;;;;;307.02;42.83;;;12.90;99.90;;;;;;5052583;28;20040;-58
2022/10/18 00:36:30;;;;;;;358.35;53.78;;;12.90;99.90;;;;;;5052591;28;20052;-58
2022/10/18 00:38:56;;;;;;;173.30;39.88;;;;;;;;;;5052889;28;20431;-58
2022/10/18 00:41:24;;;;;;;495.38;51.70;;;13.20;99.90;;;;;;5052959;28;20048;-57
2022/10/18 00:43:53;;;;;;;542.28;64.10;;;12.80;99.90;;;;;;5052564;28;20103;-57
2022/10/18 00:46:19;;;;;;;280.95;49.80;;;12.80;99.90;;;;;;5052525;28;20045;-58
2022/10/18 00:48:48;;;;;;;576.10;55.35;;;12.90;99.90;;;;;;5052743;28;20110;-58
2022/10/18 00:51:15;;;;;;;417.10;51.97;;;12.70;99.90;;;;;;5051290;28;20125;-58
2022/10/18 00:53:43;;;;;;;669.30;72.07;;;13.00;99.90;;;;;;5055140;28;20481;-58
2022/10/18 00:56:09;;;;;;;317.52;51.08;;;;;;;;;;5056212;28;20598;-58
2022/10/18 00:58:35;;;;;;;496.92;58.97;;;13.10;99.90;;;;;;5056264;28;20037;-58
2022/10/18 01:01:00;;;;;;;548.72;66.07;;;13.20;99.90;;;;;;5055965;28;20036;-58
2022/10/18 01:03:26;;;;;;;335.63;54.35;;;13.10;99.90;;;;;;5056379;28;20447;-58
2022/10/18 01:05:52;;;;;;;287.15;42.10;;;13.30;99.90;;;;;;5056303;28;20158;-58
2022/10/18 01:08:31;;;;;;;191.02;41.60;;;13.20;99.90;;;;;;5056366;28;20102;-58
2022/10/18 01:10:59;;;;;;;582.78;64.07;;;13.40;99.90;;;;;;5056111;28;20040;-57
2022/10/18 01:13:47;;;;;;;677.95;74.82;;;13.50;99.90;;;;;;5055892;28;20120;-58
2022/10/18 01:16:55;;;;;;;221.13;45.22;;;13.50;99.90;;;;;;5056027;28;20109;-57
2022/10/18 01:19:39;;;;;;;698.25;72.35;;;13.30;99.90;;;;;;5014193;28;20041;-57
2022/10/18 01:22:30;;;;;;;522.00;58.75;;;13.10;99.90;;;;;;5014058;28;20101;-57
2022/10/18 01:25:36;;;;;;;447.10;59.85;;;13.10;99.90;;;;;;5013916;28;20042;-57
2022/10/18 01:28:05;;;;;;;407.95;59.72;;;12.90;99.90;;;;;;5013738;28;20042;-57
2022/10/18 01:30:36;;;;;;;366.63;53.15;;;12.70;99.90;;;;;;5013699;28;20387;-58
2022/10/18 01:33:20;;;;;;;289.27;49.22;;;13.00;99.90;;;;;;5013780;28;20109;-57
2022/10/18 01:35:57;;;;;;;373.90;59.20;;;13.10;99.90;;;;;;5013848;28;20441;-58
2022/10/18 01:38:24;;;;;;;634.83;67.78;;;13.00;99.90;;;;;;5013669;28;20049;-58
2022/10/18 01:40:52;;;;;;;450.90;61.30;;;13.30;99.90;;;;;;5013709;28;20042;-58
2022/10/18 01:43:21;;;;;;;274.90;51.30;;;13.20;99.90;;;;;;5013612;28;20041;-58
2022/10/18 01:45:48;;;;;;;521.97;62.45;;;13.00;99.90;;;;;;5013642;28;20049;-57
2022/10/18 01:48:15;;;;;;;487.42;66.60;;;13.40;99.90;;;;;;5013657;28;20069;-58
2022/10/18 01:50:41;;;;;;;481.00;64.78;;;13.50;99.90;;;;;;5040306;28;20400;-58
2022/10/18 01:53:25;;;;;;;316.33;54.17;;;13.10;99.90;;;;;;5055235;28;20045;-58
2022/10/18 01:56:14;;;;;;;384.98;54.10;;;13.40;99.90;;;;;;5055500;28;20045;-58
2022/10/18 01:59:07;;;;;;;583.92;69.75;;;13.10;99.90;;;;;;5054871;28;20051;-57
2022/10/18 02:02:00;;;;;;;486.88;70.38;;;13.10;99.90;;;;;;5054899;28;20044;-58
2022/10/18 02:04:33;;;;;;;380.92;55.35;;;12.90;99.90;;;;;;5055118;28;20445;-57
2022/10/18 02:07:27;;;;;;;380.15;53.28;;;12.80;99.90;;;;;;5055489;28;20041;-58
2022/10/18 02:10:02;;;;;;;487.70;63.58;;;13.00;99.90;;;;;;5052562;28;20497;-57
2022/10/18 02:12:32;;;;;;;354.20;50.45;;;13.50;99.90;;;;;;5055125;28;20043;-58
2022/10/18 02:15:01;;;;;;;655.55;72.40;;;13.00;99.90;;;;;;5054969;28;20067;-57
2022/10/18 02:17:29;;;;;;;406.05;58.67;;;13.10;99.90;;;;;;5054803;28;20428;-57
2022/10/18 02:19:59;;;;;;;570.10;63.65;;;13.10;99.90;;;;;;5054817;28;20378;-58
2022/10/18 02:22:30;;;;;;;269.02;52.72;;;13.00;99.90;;;;;;5053452;28;20053;-58
2022/10/18 02:25:08;;;;;;;501.70;60.53;;;12.90;99.90;;;;;;5054834;28;20040;-57
2022/10/18 02:27:36;;;;;;;418.88;55.85;;;13.00;99.90;;;;;;5054916;28;20036;-57
2022/10/18 02:30:03;;;;;;;277.58;44.17;;;13.20;99.90;;;;;;5054252;28;20449;-58
2022/10/18 02:32:39;;;;;;;247.05;45.13;;;13.00;99.90;;;;;;5054403;28;20488;-58
2022/10/18 02:35:24;;;;;;;292.67;49.17;;;12.80;99.90;;;;;;5054486;28;20044;-58
2022/10/18 02:37:52;;;;;;;375.52;49.53;;;12.90;99.90;;;;;;5054588;28;20052;-57
2022/10/18 02:40:19;;;;;;;423.83;51.30;;;12.80;99.90;;;;;;5054790;28;20052;-57
2022/10/18 02:42:53;;;;;;;362.08;48.08;;;12.90;99.90;;;;;;5053558;28;20504;-57
2022/10/18 02:45:20;;;;;;;576.53;62.08;;;13.20;99.90;;;;;;5054537;28;20457;-58
2022/10/18 02:47:46;;;;;;;800.55;79.18;;;13.20;99.90;;;;;;5054321;28;20032;-57
2022/10/18 02:50:12;;;;;;;429.55;54.72;;;;;;;;;;5054081;28;20044;-58
2022/10/18 02:52:40;;;;;;;478.25;65.68;;;12.90;99.90;;;;;;5054040;28;20124;-57
2022/10/18 02:55:06;;;;;;;598.17;73.82;;;13.30;99.90;;;;;;5054131;28;20045;-57
2022/10/18 02:57:32;;;;;;;646.60;74.72;;;13.60;99.90;;;;;;5053962;28;20094;-57
2022/10/18 02:59:59;;;;;;;659.10;73.53;;;;;;;;;;5054272;28;20045;-57
2022/10/18 03:02:25;;;;;;;171.07;41.38;;;13.20;99.90;;;;;;5053741;28;20128;-57
2022/10/18 03:04:54;;;;;;;224.15;50.33;;;12.90;99.90;;;;;;5054104;28;20037;-57
2022/10/18 03:07:23;;;;;;;196.25;45.83;;;13.30;99.90;;;;;;5054010;28;20044;-57
2022/10/18 03:09:52;;;;;;;357.05;60.20;;;13.50;99.90;;;;;;5053840;28;20083;-57
2022/10/18 03:12:18;;;;;;;589.35;76.57;;;13.50;99.90;;;;;;5053767;28;20037;-57
2022/10/18 03:14:45;;;;;;;185.75;44.78;;;13.00;99.90;;;;;;5053563;28;20052;-57
2022/10/18 03:17:11;;;;;;;343.33;56.80;;;;;;;;;;5053608;28;20041;-57
2022/10/18 03:19:37;;;;;;;168.10;43.00;;;13.30;99.90;;;;;;5053725;28;20041;-57
2022/10/18 03:22:04;;;;;;;255.10;56.70;;;13.40;99.90;;;;;;5053692;28;20033;-57
2022/10/18 03:24:29;;;;;;;417.50;60.47;;;13.20;99.90;;;;;;5052444;28;20139;-57
2022/10/18 03:26:55;;;;;;;452.75;57.20;;;12.90;99.90;;;;;;5053479;28;20120;-57
2022/10/18 03:29:22;;;;;;;711.47;82.40;;;13.00;99.90;;;;;;5053481;28;20388;-57
2022/10/18 03:31:49;;;;;;;611.95;72.95;;;12.80;99.90;;;;;;5053679;28;20044;-57
2022/10/18 03:34:17;;;;;;;491.40;65.47;;;13.00;99.90;;;;;;5053863;28;20049;-57
2022/10/18 03:36:43;;;;;;;445.17;62.92;;;13.10;99.90;;;;;;5053642;28;20033;-57
2022/10/18 03:39:11;;;;;;;256.95;46.03;;;12.80;99.90;;;;;;5053337;28;20036;-57
2022/10/18 03:41:36;;;;;;;241.77;46.42;;;13.00;99.90;;;;;;5053231;28;20051;-57
2022/10/18 03:44:02;;;;;;;307.60;52.20;;;12.90;99.90;;;;;;5053216;28;20116;-57
2022/10/18 03:46:29;;;;;;;400.60;58.75;;;13.30;99.90;;;;;;5053402;28;20086;-58
2022/10/18 03:48:54;;;;;;;324.45;48.97;;;13.40;99.90;;;;;;5053362;28;20036;-57
2022/10/18 03:51:20;;;;;;;567.33;72.15;;;12.80;99.90;;;;;;5053699;28;20122;-57
2022/10/18 03:53:45;;;;;;;568.80;65.97;;;13.20;99.90;;;;;;5053552;28;20032;-57
2022/10/18 03:56:11;;;;;;;260.50;50.95;;;;;;;;;;5053269;28;20075;-57
2022/10/18 03:58:37;;;;;;;123.75;34.67;;;12.50;99.90;;;;;;5052536;28;20491;-57
2022/10/18 04:01:06;;;;;;;485.30;64.55;;;12.90;99.90;;;;;;5051701;28;20508;-57
2022/10/18 04:03:33;;;;;;;308.20;45.15;;;13.00;99.90;;;;;;5050170;28;20461;-57
2022/10/18 04:06:02;;;;;;;568.30;66.53;;;12.90;99.90;;;;;;5051164;28;20033;-58
2022/10/18 04:08:29;;;;;;;243.32;45.63;;;13.10;99.90;;;;;;5050986;28;20071;-58
2022/10/18 04:10:56;;;;;;;412.83;56.88;;;12.60;99.90;;;;;;5050092;28;20037;-58
2022/10/18 04:13:22;;;;;;;160.27;37.80;;;13.40;99.90;;;;;;5051204;28;20452;-58
2022/10/18 04:15:48;;;;;;;213.75;44.35;;;13.10;99.90;;;;;;5051148;28;20045;-57
2022/10/18 04:18:17;;;;;;;220.15;46.15;;;12.80;99.90;;;;;;5052723;28;20048;-57
2022/10/18 04:20:42;;;;;;;312.10;50.08;;;13.10;99.90;;;;;;5053001;28;20064;-57
2022/10/18 04:23:08;;;;;;;380.80;51.53;;;12.60;99.90;;;;;;5052689;28;20041;-57
2022/10/18 04:25:33;;;;;;;218.02;44.58;;;12.70;99.90;;;;;;5052615;28;20033;-57
2022/10/18 04:28:03;;;;;;;240.18;38.65;;;13.00;99.90;;;;;;5053369;28;20044;-57
2022/10/18 04:30:30;;;;;;;513.42;65.40;;;12.80;99.90;;;;;;5054541;28;20068;-57
2022/10/18 04:32:56;;;;;;;279.30;51.00;;;12.50;99.90;;;;;;5054499;28;20045;-57
2022/10/18 04:35:24;;;;;;;213.13;44.45;;;13.10;99.90;;;;;;5054595;28;20481;-57
2022/10/18 04:37:54;;;;;;;444.52;59.00;;;12.80;99.90;;;;;;5053800;28;20049;-57
2022/10/18 04:40:23;;;;;;;169.77;38.97;;;13.20;99.90;;;;;;5054657;28;20041;-57
2022/10/18 04:42:49;;;;;;;115.95;36.90;;;13.20;99.90;;;;;;5054847;28;20057;-57
2022/10/18 04:45:15;;;;;;;228.60;43.20;;;12.60;99.90;;;;;;5056773;28;20036;-57
2022/10/18 04:47:40;;;;;;;261.75;40.95;;;13.00;99.90;;;;;;5056548;28;20116;-57
2022/10/18 04:50:08;;;;;;;350.23;50.22;;;12.50;99.90;;;;;;5056382;28;20056;-57
2022/10/18 04:52:33;;;;;;;134.50;35.00;;;13.20;99.90;;;;;;5056745;28;20037;-57
2022/10/18 04:55:01;;;;;;;139.68;36.53;;;13.00;99.90;;;;;;5056506;28;20126;-57
2022/10/18 04:57:26;;;;;;;166.65;32.28;;;13.00;99.90;;;;;;5056476;28;20069;-57
2022/10/18 04:59:54;;;;;;;376.40;53.35;;;;;;;;;;5056399;28;20064;-58
2022/10/18 05:02:20;;;;;;;181.23;39.10;;;12.50;99.90;;;;;;5055003;28;20049;-58
2022/10/18 05:04:47;;;;;;;235.27;46.50;;;12.70;99.90;;;;;;5056298;28;20033;-57
2022/10/18 05:07:14;;;;;;;254.88;48.38;;;13.00;99.90;;;;;;5056233;28;20033;-57
2022/10/18 05:09:40;;;;;;;390.23;48.20;;;13.00;99.90;;;;;;5056203;28;20488;-57
2022/10/18 05:12:09;;;;;;;254.70;43.40;;;12.50;99.90;;;;;;5056175;28;20124;-58
2022/10/18 05:14:35;;;;;;;274.40;43.08;;;12.90;99.90;;;;;;5056052;28;20041;-58
2022/10/18 05:17:00;;;;;;;222.18;44.72;;;12.70;99.90;;;;;;5056225;28;20037;-58
2022/10/18 05:19:28;;;;;;;347.23;50.17;;;12.50;99.90;;;;;;5055901;28;20076;-58
2022/10/18 05:21:54;;;;;;;314.27;48.42;;;12.30;99.90;;;;;;5056180;28;20045;-57
2022/10/18 05:24:19;;;;;;;212.30;44.10;;;12.90;99.90;;;;;;5055975;28;20059;-58
2022/10/18 05:26:45;;;;;;;325.80;48.80;;;12.80;99.90;;;;;;5054705;28;20350;-57
2022/10/18 05:29:11;;;;;;;363.02;48.22;;;12.30;99.90;;;;;;5054412;28;20118;-57
2022/10/18 05:31:37;;;;;;;275.20;42.75;;;12.60;99.90;;;;;;5055938;28;20088;-57
2022/10/18 05:34:03;;;;;;;395.63;53.55;;;;;;;;;;5055638;28;20036;-57
2022/10/18 05:36:29;;;;;;;478.27;57.63;;;;;;;;;;5055676;28;20049;-57
2022/10/18 05:38:56;;;;;;;355.70;47.15;;;12.90;99.90;;;;;;5055138;28;20123;-57
2022/10/18 05:41:25;;;;;;;268.35;42.75;;;;;;;;;;5053988;28;20067;-57
2022/10/18 05:43:51;;;;;;;330.13;44.42;;;;;;;;;;5055546;28;20037;-57
2022/10/18 05:46:17;;;;;;;261.95;42.95;;;12.20;99.90;;;;;;5055422;28;20037;-57
2022/10/18 05:48:48;;;;;;;232.18;38.47;;;12.40;99.90;;;;;;5055369;28;20546;-57
2022/10/18 05:51:14;;;;;;;517.15;64.82;;;12.70;99.90;;;;;;5055304;28;20045;-66
2022/10/18 05:53:39;;;;;;;483.35;60.72;;;12.80;99.90;;;;;;5053854;28;20041;-57
2022/10/18 05:56:06;;;;;;;410.60;52.30;;;12.70;99.90;;;;;;5053842;28;20059;-58
2022/10/18 05:58:37;;;;;;;281.85;41.75;;;12.50;99.90;;;;;;5053727;28;20076;-57
2022/10/18 06:01:04;;;;;;;245.93;35.92;;;12.10;99.90;;;;;;5053674;28;20516;-57
2022/10/18 06:03:30;;;;;;;233.05;38.55;;;12.40;99.90;;;;;;5054168;28;20064;-58
2022/10/18 06:06:03;;;;;;;239.55;41.95;;;12.80;99.90;;;;;;5054117;28;20103;-58
2022/10/18 06:08:29;;;;;;;236.57;35.88;;;12.50;99.90;;;;;;5053877;28;20443;-58
2022/10/18 06:10:57;;;;;;;254.27;40.75;;;11.90;99.90;;;;;;5051856;28;20048;-58
2022/10/18 06:13:25;;;;;;;246.02;41.05;;;12.20;99.90;;;;;;5054218;28;20116;-58
2022/10/18 06:15:57;;;;;;;251.35;41.10;;;12.40;99.90;;;;;;5054140;28;20145;-58
2022/10/18 06:18:23;;;;;;;219.65;37.03;;;12.10;99.90;;;;;;5054197;28;20116;-58
2022/10/18 06:20:49;;;;;;;196.85;35.63;;;;;;;;;;5052233;28;20136;-63
2022/10/18 06:23:15;;;;;;;191.52;33.67;;;11.70;99.90;;;;;;5054121;28;20098;-63
2022/10/18 06:25:40;;;;;;;239.40;38.97;;;12.20;99.90;;;;;;5053808;28;20481;-63
2022/10/18 06:28:06;;;;;;;89.88;26.50;;;;;;;;;;5053513;28;20381;-64
2022/10/18 06:30:34;;;;;;;214.35;39.42;;;12.40;99.90;;;;;;5053699;28;20504;-64
2022/10/18 06:33:00;;;;;;;193.00;35.85;;;12.10;99.90;;;;;;5053594;28;20157;-64
2022/10/18 06:35:26;;;;;;;85.30;26.80;;;12.40;99.90;;;;;;5054191;28;20033;-64
2022/10/18 06:37:52;;;;;;;133.00;27.85;;;12.40;99.90;;;;;;5053373;28;20049;-64
2022/10/18 06:40:21;;;;;;;235.90;40.63;;;;;;;;;;5053873;28;20111;-65
2022/10/18 06:42:48;;;;;;;266.25;40.05;;;;;;;;;;5053102;28;20068;-63
2022/10/18 06:45:17;;;;;;;248.70;35.72;;;11.90;99.90;;;;;;5053648;28;20480;-64
2022/10/18 06:47:44;;;;;;;327.50;41.90;;;12.40;99.90;;;;;;5053450;28;20045;-64
2022/10/18 06:50:10;;;;;;;304.58;34.40;;;;;;;;;;5053612;28;20072;-65
2022/10/18 06:52:37;;;;;;;331.83;37.15;;;;;;;;;;5054234;28;20063;-64
2022/10/18 06:55:03;;;;;;;270.63;34.75;;;;;;;;;;5054015;28;20040;-64
2022/10/18 06:57:30;;;;;;;269.65;30.35;;;12.10;99.90;;;;;;5053933;28;20056;-64
2022/10/18 06:59:56;;;;;;;257.35;32.42;;;12.30;99.90;;;;;;5053717;28;20041;-64
2022/10/18 07:02:25;;;;;;;409.67;43.85;;;12.30;99.90;;;;;;5054084;28;20045;-64
2022/10/18 07:04:51;;;;;;;219.48;25.98;;;12.00;99.90;;;;;;5053176;28;20499;-64
2022/10/18 07:07:20;;;;;;;244.15;32.47;;;12.30;99.90;;;;;;5053973;28;20120;-64
2022/10/18 07:09:46;;;;;;;372.13;42.78;;;12.10;99.90;;;;;;5053476;28;20053;-64
2022/10/18 07:12:14;;;;;;;168.77;24.90;;;11.70;99.90;;;;;;5053998;28;20045;-65
2022/10/18 07:14:42;;;;;;;318.63;32.90;;;12.20;99.90;;;;;;5035884;28;20084;-64
2022/10/18 07:17:09;;;;;;;226.77;26.02;;;12.10;99.90;;;;;;5053783;28;20110;-64
2022/10/18 07:19:35;;;;;;;206.00;26.25;;;12.30;99.90;;;;;;5053763;28;20401;-64
2022/10/18 07:22:10;;;;;;;161.35;25.20;;;12.10;99.90;;;;;;5053450;28;20417;-64
2022/10/18 07:24:36;;;;;;;173.68;26.00;;;;;;;;;;5053787;28;20041;-65
2022/10/18 07:27:02;;;;;;;205.98;29.27;;;12.30;99.90;;;;;;5053680;28;20073;-64
2022/10/18 07:29:31;;;;;;;335.60;33.75;;;12.90;99.90;;;;;;5053399;28;20079;-65
2022/10/18 07:31:57;;;;;;;304.83;32.33;;;12.30;99.90;;;;;;5053536;28;20126;-64
2022/10/18 07:34:23;;;;;;;94.18;20.20;;;12.80;99.90;;;;;;5053273;28;20485;-64
2022/10/18 07:36:49;;;;;;;143.88;18.73;;;12.60;99.90;;;;;;5051954;28;20409;-64
2022/10/18 07:39:15;;;;;;;186.80;22.38;;;12.90;99.90;;;;;;5053464;28;20040;-64
2022/10/18 07:41:44;;;;;;;95.25;17.45;;;12.70;99.90;;;;;;5053364;28;20389;-65
2022/10/18 07:44:10;;;;;;;136.48;25.95;;;12.90;99.90;;;;;;5052014;28;20048;-66
2022/10/18 07:46:36;;;;;;;188.00;24.05;;;13.10;99.90;;;;;;5042842;28;20041;-65
2022/10/18 07:49:02;;;;;;;101.43;20.88;;;13.30;99.90;;;;;;5051083;28;20041;-66
2022/10/18 07:51:31;;;;;;;133.13;18.08;;;12.70;99.90;;;;;;5051681;28;20122;-65
2022/10/18 07:53:57;;;;;;;142.85;18.48;;;12.80;99.90;;;;;;5053291;28;20052;-65
2022/10/18 07:56:24;;;;;;;88.95;17.85;;;13.00;99.90;;;;;;5051993;28;20036;-65
2022/10/18 07:58:55;;;;;;;171.13;15.40;;;12.90;99.90;;;;;;5053212;28;20374;-66
2022/10/18 08:01:29;;;;;;;382.55;23.35;;;12.90;99.90;;;;;;5052311;28;20378;-65
2022/10/18 08:03:59;;;;;;;159.80;17.30;;;13.20;99.90;;;;;;5051864;28;20457;-66
2022/10/18 08:06:26;;;;;;;132.05;14.95;;;13.50;99.90;;;;;;5053777;28;20084;-66
2022/10/18 08:08:52;;;;;;;155.48;14.32;;;12.60;99.90;;;;;;5052006;28;20374;-65
2022/10/18 08:11:25;;;;;;;268.27;18.30;;;13.40;99.90;;;;;;5052392;28;20037;-68
2022/10/18 08:13:54;;;;;;;89.50;14.38;;;;;;;;;;5052143;28;20041;-66
2022/10/18 08:16:22;;;;;;;38.38;12.38;;;12.70;99.90;;;;;;5051033;28;20545;-65
2022/10/18 08:18:48;;;;;;;88.75;14.20;;;12.70;99.90;;;;;;5052764;28;20049;-65
2022/10/18 08:21:18;;;;;;;51.42;12.75;;;13.30;99.90;;;;;;5053150;28;20067;-65
2022/10/18 08:23:44;;;;;;;191.55;14.43;;;;;;;;;;5052997;28;20044;-66
2022/10/18 08:26:14;;;;;;;83.43;13.27;;;12.80;99.90;;;;;;5052869;28;20077;-65
2022/10/18 08:28:42;;;;;;;24.33;12.60;;;13.30;99.90;;;;;;5052481;28;20083;-66
2022/10/18 08:31:10;;;;;;;56.63;13.68;;;13.70;99.90;;;;;;5050896;28;20124;-66
2022/10/18 08:33:40;;;;;;;31.38;12.45;;;13.10;99.90;;;;;;5051497;28;20048;-66
2022/10/18 08:36:10;;;;;;;55.50;12.98;;;13.40;99.90;;;;;;5052244;28;20095;-66
2022/10/18 08:38:41;;;;;;;32.38;12.32;;;13.60;99.90;;;;;;5052436;28;20048;-67
2022/10/18 08:41:26;;;;;;;37.95;13.02;;;13.60;99.90;;;;;;5052309;28;20044;-66
2022/10/18 08:44:10;;;;;;;35.47;13.85;;;13.70;99.90;;;;;;5051834;28;20045;-66
2022/10/18 08:47:18;;;;;;;52.63;14.18;;;13.70;99.90;;;;;;5052887;28;20035;-67
2022/10/18 08:49:52;;;;;;;86.32;13.45;;;13.80;99.90;;;;;;5052470;28;20045;-66
2022/10/18 08:52:42;;;;;;;43.45;11.68;;;13.70;99.90;;;;;;5052799;28;20102;-67
2022/10/18 08:55:27;;;;;;;46.63;12.05;;;14.00;99.90;;;;;;5052696;28;20045;-70
2022/10/18 08:57:57;;;;;;;30.35;11.98;;;13.60;99.90;;;;;;5052622;28;20049;-66
2022/10/18 09:00:28;;;;;;;36.97;12.70;;;13.70;99.90;;;;;;5052764;28;20045;-67
2022/10/18 09:03:20;;;;;;;29.85;11.25;;;13.70;99.90;;;;;;5052407;28;20088;-67
2022/10/18 09:05:54;;;;;;;26.95;11.32;;;13.50;99.90;;;;;;5052633;28;20073;-66
2022/10/18 09:08:47;;;;;;;22.67;10.50;;;14.00;99.90;;;;;;5052371;28;20037;-67
2022/10/18 09:11:52;;;;;;;20.33;11.88;;;13.70;99.90;;;;;;5051343;28;20041;-67
2022/10/18 09:14:39;;;;;;;24.33;11.55;;;13.70;99.90;;;;;;5054451;28;20049;-67
2022/10/18 09:17:29;;;;;;;17.15;11.60;;;13.60;99.90;;;;;;5054632;28;20052;-66
2022/10/18 09:20:20;;;;;;;20.60;11.27;;;13.80;99.90;;;;;;5054739;28;20508;-66
2022/10/18 09:23:04;;;;;;;21.10;12.02;;;13.90;99.90;;;;;;5055324;28;20056;-66
2022/10/18 09:25:45;;;;;;;19.60;11.07;;;14.00;99.90;;;;;;5055367;28;20041;-65
2022/10/18 09:28:16;;;;;;;16.33;11.27;;;14.00;99.90;;;;;;5055322;28;20060;-67
2022/10/18 09:31:16;;;;;;;25.20;12.15;;;14.20;99.90;;;;;;5055228;28;20052;-66
2022/10/18 09:33:53;;;;;;;15.98;11.05;;;14.20;99.90;;;;;;5048084;28;20051;-66
2022/10/18 09:36:34;;;;;;;16.35;10.35;;;14.70;99.90;;;;;;5072268;28;20036;-65
2022/10/18 09:39:04;;;;;;;19.08;9.70;;;14.70;99.90;;;;;;5069047;28;20507;-65
2022/10/18 09:42:11;;;;;;;18.42;10.18;;;14.80;99.90;;;;;;5058790;28;20045;-64
2022/10/18 09:44:50;;;;;;;19.05;9.55;;;14.90;99.90;;;;;;5066019;28;20184;-66
2022/10/18 09:47:25;;;;;;;15.57;9.77;;;14.90;99.90;;;;;;5075073;28;20040;-66
2022/10/18 09:50:01;;;;;;;15.07;8.95;;;14.70;99.90;;;;;;5039808;28;20392;-66
2022/10/18 09:52:40;;;;;;;17.40;9.52;;;15.20;99.90;;;;;;5065247;28;20033;-66
2022/10/18 09:55:26;;;;;;;18.85;8.95;;;14.50;99.90;;;;;;5069540;28;20032;-66
2022/10/18 09:57:59;;;;;;;16.63;8.75;;;15.00;99.90;;;;;;5045188;28;20050;-65
2022/10/18 10:00:33;;;;;;;16.10;8.52;;;15.10;99.90;;;;;;5059726;28;20045;-64
2022/10/18 10:03:14;;;;;;;21.70;9.55;;;14.60;99.90;;;;;;5042247;28;20091;-65
2022/10/18 10:06:15;;;;;;;15.85;8.70;;;15.30;99.90;;;;;;5045951;28;20041;-64
2022/10/18 10:08:52;;;;;;;16.75;8.77;;;15.70;99.90;;;;;;5074544;28;20047;-64
2022/10/18 10:11:39;;;;;;;14.52;8.35;;;15.30;99.90;;;;;;5074577;28;20149;-64
2022/10/18 10:14:14;;;;;;;17.20;8.50;;;15.30;99.90;;;;;;5074341;28;20041;-65
2022/10/18 10:17:28;;;;;;;15.23;8.55;;;15.30;99.90;;;;;;5074644;28;20044;-65
2022/10/18 10:20:13;;;;;;;18.77;8.43;;;15.30;99.90;;;;;;5041606;28;20544;-64
2022/10/18 10:22:40;;;;;;;17.70;8.93;;;16.00;99.90;;;;;;5051302;28;20132;-65
2022/10/18 10:25:19;;;;;;;15.82;7.78;;;15.20;99.90;;;;;;5052876;28;20404;-65
2022/10/18 10:27:45;;;;;;;23.98;7.95;;;16.00;99.90;;;;;;5052896;28;20175;-64
2022/10/18 10:30:29;;;;;;;19.88;8.00;;;15.70;99.90;;;;;;5053371;28;20065;-65
2022/10/18 10:32:56;;;;;;;20.33;7.40;;;16.00;99.90;;;;;;5053205;28;20051;-65
2022/10/18 10:35:34;;;;;;;15.93;7.30;;;16.00;99.90;;;;;;5053746;28;20116;-65
2022/10/18 10:38:01;;;;;;;17.20;7.15;;;16.00;99.90;;;;;;5053220;28;20057;-65
2022/10/18 10:40:49;;;;;;;17.05;7.00;;;15.70;99.90;;;;;;5053794;28;20055;-65
2022/10/18 10:43:23;;;;;;;15.32;6.85;;;15.80;99.90;;;;;;5053487;28;20471;-65
2022/10/18 10:46:11;;;;;;;15.73;6.80;;;15.70;99.90;;;;;;5053208;28;20080;-65
2022/10/18 10:48:49;;;;;;;18.75;7.60;;;16.20;99.90;;;;;;5052618;28;20052;-65
2022/10/18 10:51:27;;;;;;;16.30;6.78;;;16.40;99.90;;;;;;5053335;28;20511;-65
2022/10/18 10:54:14;;;;;;;17.23;6.53;;;15.90;99.90;;;;;;5052828;28;20535;-65
2022/10/18 10:57:19;;;;;;;20.75;5.82;;;16.10;99.90;;;;;;5053413;28;20044;-65
2022/10/18 10:59:49;;;;;;;20.55;4.25;;;16.50;99.90;;;;;;5052319;28;20052;-65
2022/10/18 11:02:17;;;;;;;15.55;3.80;;;16.10;99.90;;;;;;5053913;28;20090;-65
2022/10/18 11:04:47;;;;;;;16.10;3.85;;;16.10;99.90;;;;;;5053989;28;20167;-65
2022/10/18 11:07:35;;;;;;;12.38;3.72;;;17.00;99.90;;;;;;5053522;28;20044;-65
2022/10/18 11:10:10;;;;;;;10.38;3.40;;;16.10;99.90;;;;;;5053981;28;20037;-65
2022/10/18 11:12:48;;;;;;;16.57;3.37;;;16.50;99.90;;;;;;5053976;28;20056;-65
2022/10/18 11:15:27;;;;;;;17.15;3.75;;;16.60;99.90;;;;;;5053789;28;20037;-65
2022/10/18 11:18:05;;;;;;;17.45;3.65;;;17.10;99.90;;;;;;5053882;28;20098;-65
2022/10/18 11:20:54;;;;;;;9.85;2.90;;;16.60;99.90;;;;;;5052617;28;20048;-66
2022/10/18 11:23:24;;;;;;;18.00;3.33;;;17.10;99.90;;;;;;5053657;28;20567;-66
2022/10/18 11:25:50;;;;;;;11.50;2.83;;;;;;;;;;5052121;28;20055;-65
2022/10/18 11:29:08;;;;;;;14.57;3.20;;;16.70;99.90;;;;;;5053653;28;20041;-65
2022/10/18 11:31:50;;;;;;;14.27;3.25;;;17.10;99.90;;;;;;5051127;28;20052;-65
2022/10/18 11:34:45;;;;;;;12.60;2.60;;;17.40;99.90;;;;;;5053305;28;20059;-66
2022/10/18 11:37:16;;;;;;;9.98;2.40;;;16.90;99.90;;;;;;5014244;28;20053;-66
2022/10/18 11:40:13;;;;;;;15.52;3.22;;;17.60;99.90;;;;;;5031215;28;20504;-66
2022/10/18 11:43:19;;;;;;;10.82;2.50;;;17.30;99.90;;;;;;5014529;28;20444;-65
2022/10/18 11:46:02;;;;;;;10.68;2.80;;;17.40;99.90;;;;;;5031155;28;20041;-65
2022/10/18 11:48:40;;;;;;;10.70;2.70;;;17.40;99.90;;;;;;5031093;28;20517;-65
2022/10/18 11:51:32;;;;;;;10.65;2.50;;;16.90;99.90;;;;;;5030941;28;20061;-65
2022/10/18 11:54:17;;;;;;;12.27;2.67;;;16.90;99.90;;;;;;5014429;28;20064;-66
2022/10/18 11:57:16;;;;;;;13.95;2.53;;;16.50;99.90;;;;;;5031007;28;20056;-65
2022/10/18 11:59:42;;;;;;;13.38;2.85;;;;;;;;;;5030890;28;20107;-64
2022/10/18 12:02:41;;;;;;;11.70;2.50;;;16.40;99.90;;;;;;5014354;28;20564;-64
2022/10/18 12:05:09;;;;;;;10.00;2.60;;;16.50;99.90;;;;;;5030884;28;20124;-65
2022/10/18 12:07:48;;;;;;;11.82;2.50;;;16.80;99.90;;;;;;5030891;28;20049;-64
2022/10/18 12:10:18;;;;;;;10.95;2.80;;;16.90;99.90;;;;;;5030941;28;20041;-65
2022/10/18 12:12:57;;;;;;;12.45;2.58;;;17.20;99.90;;;;;;5032362;28;20084;-65
2022/10/18 12:15:25;;;;;;;10.38;2.72;;;16.90;99.90;;;;;;5052120;28;20485;-65
2022/10/18 12:17:58;;;;;;;10.18;2.17;;;17.10;99.90;;;;;;5052057;28;20424;-66
2022/10/18 12:20:31;;;;;;;9.55;2.20;;;17.00;99.90;;;;;;5052026;28;20076;-66
2022/10/18 12:23:08;;;;;;;11.23;2.38;;;17.00;99.90;;;;;;5052062;28;20053;-67
2022/10/18 12:25:40;;;;;;;15.27;2.60;;;17.50;99.90;;;;;;5052186;28;20534;-66
2022/10/18 12:28:12;;;;;;;14.50;2.53;;;17.50;99.90;;;;;;5051504;28;20388;-65
2022/10/18 12:30:58;;;;;;;17.13;2.70;;;17.90;99.90;;;;;;5052439;28;20083;-66
2022/10/18 12:33:29;;;;;;;10.77;2.47;;;17.70;99.90;;;;;;5051475;28;20467;-65
2022/10/18 12:36:04;;;;;;;14.68;2.40;;;18.00;99.90;;;;;;5052963;28;20072;-66
2022/10/18 12:38:41;;;;;;;13.00;2.75;;;17.30;99.90;;;;;;5035030;28;20033;-66
2022/10/18 12:41:10;;;;;;;15.75;2.67;;;17.80;99.90;;;;;;5051160;28;20504;-66
2022/10/18 12:43:38;;;;;;;12.10;2.83;;;17.90;99.90;;;;;;5052511;28;20037;-59
2022/10/18 12:46:06;;;;;;;13.35;2.40;;;18.10;99.90;;;;;;5052638;28;20075;-59
2022/10/18 12:48:42;;;;;;;12.02;2.58;;;18.00;99.90;;;;;;5052332;28;20500;-59
2022/10/18 12:51:22;;;;;;;13.10;2.45;;;17.90;99.90;;;;;;5055295;28;20072;-59
2022/10/18 12:54:03;;;;;;;10.98;2.20;;;18.00;99.90;;;;;;5056551;28;20366;-59
2022/10/18 12:56:32;;;;;;;10.90;2.45;;;17.70;99.90;;;;;;5055497;28;20087;-59
2022/10/18 12:59:16;;;;;;;10.25;2.30;;;18.30;99.90;;;;;;5056216;28;20045;-59